sensor_id;sensor_type;location;lat;lon;timestamp;temperature;humidity
72712;SHT30;60828;40.292;17.998;2022-08-19T00:02:21;27.62;63.64
72712;SHT30;60828;40.292;17.998;2022-08-19T00:04:46;27.51;63.82
72712;SHT30;60828;40.292;17.998;2022-08-19T00:07:15;27.62;63.61
72712;SHT30;60828;40.292;17.998;2022-08-19T00:09:40;27.59;63.52
72712;SHT30;60828;40.292;17.998;2022-08-19T00:12:06;27.42;63.65
72712;SHT30;60828;40.292;17.998;2022-08-19T00:14:31;27.41;63.67
72712;SHT30;60828;40.292;17.998;2022-08-19T00:16:56;27.37;63.70
72712;SHT30;60828;40.292;17.998;2022-08-19T00:19:22;27.38;63.52
72712;SHT30;60828;40.292;17.998;2022-08-19T00:21:48;27.29;63.50
72712;SHT30;60828;40.292;17.998;2022-08-19T00:24:14;27.33;63.33
72712;SHT30;60828;40.292;17.998;2022-08-19T00:26:40;27.38;62.82
72712;SHT30;60828;40.292;17.998;2022-08-19T00:29:06;27.42;62.74
72712;SHT30;60828;40.292;17.998;2022-08-19T00:31:32;27.33;62.65
72712;SHT30;60828;40.292;17.998;2022-08-19T00:33:58;27.34;62.84
72712;SHT30;60828;40.292;17.998;2022-08-19T00:36:24;27.31;62.59
72712;SHT30;60828;40.292;17.998;2022-08-19T00:38:49;27.38;62.49
72712;SHT30;60828;40.292;17.998;2022-08-19T00:41:18;27.44;62.45
72712;SHT30;60828;40.292;17.998;2022-08-19T00:46:29;27.37;62.40
72712;SHT30;60828;40.292;17.998;2022-08-19T00:48:56;27.34;62.48
72712;SHT30;60828;40.292;17.998;2022-08-19T00:51:22;27.33;62.50
72712;SHT30;60828;40.292;17.998;2022-08-19T00:53:48;27.26;62.75
72712;SHT30;60828;40.292;17.998;2022-08-19T00:56:13;27.26;63.06
72712;SHT30;60828;40.292;17.998;2022-08-19T00:58:40;27.23;62.96
72712;SHT30;60828;40.292;17.998;2022-08-19T01:01:06;27.15;63.35
72712;SHT30;60828;40.292;17.998;2022-08-19T01:03:32;27.17;63.33
72712;SHT30;60828;40.292;17.998;2022-08-19T01:05:58;27.15;63.13
72712;SHT30;60828;40.292;17.998;2022-08-19T01:08:23;27.24;63.14
72712;SHT30;60828;40.292;17.998;2022-08-19T01:10:58;27.34;62.68
72712;SHT30;60828;40.292;17.998;2022-08-19T01:13:26;27.26;62.76
72712;SHT30;60828;40.292;17.998;2022-08-19T01:16:00;27.15;63.09
72712;SHT30;60828;40.292;17.998;2022-08-19T01:18:26;27.21;62.94
72712;SHT30;60828;40.292;17.998;2022-08-19T01:20:53;27.17;63.17
72712;SHT30;60828;40.292;17.998;2022-08-19T01:23:19;27.10;63.26
72712;SHT30;60828;40.292;17.998;2022-08-19T01:25:49;27.11;63.40
72712;SHT30;60828;40.292;17.998;2022-08-19T01:28:16;27.13;63.20
72712;SHT30;60828;40.292;17.998;2022-08-19T01:30:42;27.14;63.28
72712;SHT30;60828;40.292;17.998;2022-08-19T01:33:08;27.18;62.98
72712;SHT30;60828;40.292;17.998;2022-08-19T01:35:34;27.13;63.09
72712;SHT30;60828;40.292;17.998;2022-08-19T01:38:01;27.10;63.08
72712;SHT30;60828;40.292;17.998;2022-08-19T01:40:31;27.03;63.36
72712;SHT30;60828;40.292;17.998;2022-08-19T01:42:57;26.99;63.49
72712;SHT30;60828;40.292;17.998;2022-08-19T01:45:24;26.99;63.63
72712;SHT30;60828;40.292;17.998;2022-08-19T01:47:49;26.92;63.81
72712;SHT30;60828;40.292;17.998;2022-08-19T01:50:15;26.97;63.73
72712;SHT30;60828;40.292;17.998;2022-08-19T01:52:42;27.00;63.66
72712;SHT30;60828;40.292;17.998;2022-08-19T01:55:09;27.00;63.79
72712;SHT30;60828;40.292;17.998;2022-08-19T01:57:35;27.02;63.90
72712;SHT30;60828;40.292;17.998;2022-08-19T02:00:02;26.93;64.22
72712;SHT30;60828;40.292;17.998;2022-08-19T02:02:30;26.87;64.43
72712;SHT30;60828;40.292;17.998;2022-08-19T02:04:55;26.72;65.06
72712;SHT30;60828;40.292;17.998;2022-08-19T02:07:20;26.60;65.56
72712;SHT30;60828;40.292;17.998;2022-08-19T02:09:46;26.55;65.76
72712;SHT30;60828;40.292;17.998;2022-08-19T02:12:13;26.57;65.67
72712;SHT30;60828;40.292;17.998;2022-08-19T02:14:39;26.60;65.55
72712;SHT30;60828;40.292;17.998;2022-08-19T02:17:04;26.56;65.46
72712;SHT30;60828;40.292;17.998;2022-08-19T02:19:30;26.62;65.18
72712;SHT30;60828;40.292;17.998;2022-08-19T02:21:57;26.62;65.01
72712;SHT30;60828;40.292;17.998;2022-08-19T02:24:23;26.62;65.01
72712;SHT30;60828;40.292;17.998;2022-08-19T02:26:48;26.63;65.05
72712;SHT30;60828;40.292;17.998;2022-08-19T02:29:13;26.62;65.03
72712;SHT30;60828;40.292;17.998;2022-08-19T02:31:39;26.55;65.22
72712;SHT30;60828;40.292;17.998;2022-08-19T02:34:04;26.57;65.32
72712;SHT30;60828;40.292;17.998;2022-08-19T02:36:29;26.55;65.28
72712;SHT30;60828;40.292;17.998;2022-08-19T02:38:55;26.56;65.28
72712;SHT30;60828;40.292;17.998;2022-08-19T02:41:25;26.69;65.03
72712;SHT30;60828;40.292;17.998;2022-08-19T02:43:52;26.63;65.06
72712;SHT30;60828;40.292;17.998;2022-08-19T02:46:22;26.59;65.20
72712;SHT30;60828;40.292;17.998;2022-08-19T02:48:51;26.56;65.45
72712;SHT30;60828;40.292;17.998;2022-08-19T02:51:24;26.52;65.50
72712;SHT30;60828;40.292;17.998;2022-08-19T02:53:50;26.52;65.51
72712;SHT30;60828;40.292;17.998;2022-08-19T02:56:16;26.44;65.71
72712;SHT30;60828;40.292;17.998;2022-08-19T02:58:42;26.44;66.12
72712;SHT30;60828;40.292;17.998;2022-08-19T03:01:08;26.29;66.77
72712;SHT30;60828;40.292;17.998;2022-08-19T03:03:34;26.24;67.38
72712;SHT30;60828;40.292;17.998;2022-08-19T03:06:06;26.18;67.58
72712;SHT30;60828;40.292;17.998;2022-08-19T03:08:32;26.20;67.99
72712;SHT30;60828;40.292;17.998;2022-08-19T03:10:57;26.22;68.10
72712;SHT30;60828;40.292;17.998;2022-08-19T03:13:23;26.25;68.09
72712;SHT30;60828;40.292;17.998;2022-08-19T03:15:49;26.24;68.41
72712;SHT30;60828;40.292;17.998;2022-08-19T03:18:15;26.22;68.51
72712;SHT30;60828;40.292;17.998;2022-08-19T03:20:51;26.21;68.75
72712;SHT30;60828;40.292;17.998;2022-08-19T03:23:19;26.17;68.92
72712;SHT30;60828;40.292;17.998;2022-08-19T03:25:46;26.11;69.05
72712;SHT30;60828;40.292;17.998;2022-08-19T03:28:13;26.08;69.18
72712;SHT30;60828;40.292;17.998;2022-08-19T03:30:39;26.14;69.20
72712;SHT30;60828;40.292;17.998;2022-08-19T03:33:08;26.14;69.20
72712;SHT30;60828;40.292;17.998;2022-08-19T03:35:34;26.17;69.19
72712;SHT30;60828;40.292;17.998;2022-08-19T03:38:02;26.18;69.28
72712;SHT30;60828;40.292;17.998;2022-08-19T03:40:27;26.16;69.61
72712;SHT30;60828;40.292;17.998;2022-08-19T03:42:55;26.22;69.66
72712;SHT30;60828;40.292;17.998;2022-08-19T03:45:20;26.16;69.84
72712;SHT30;60828;40.292;17.998;2022-08-19T03:47:45;26.32;69.72
72712;SHT30;60828;40.292;17.998;2022-08-19T03:50:11;26.21;69.86
72712;SHT30;60828;40.292;17.998;2022-08-19T03:52:36;26.27;69.77
72712;SHT30;60828;40.292;17.998;2022-08-19T03:55:02;26.31;69.94
72712;SHT30;60828;40.292;17.998;2022-08-19T03:57:28;26.27;70.12
72712;SHT30;60828;40.292;17.998;2022-08-19T03:59:53;26.24;70.41
72712;SHT30;60828;40.292;17.998;2022-08-19T04:02:18;26.25;70.31
72712;SHT30;60828;40.292;17.998;2022-08-19T04:04:44;26.29;70.30
72712;SHT30;60828;40.292;17.998;2022-08-19T04:07:10;26.27;70.35
72712;SHT30;60828;40.292;17.998;2022-08-19T04:09:36;26.17;70.73
72712;SHT30;60828;40.292;17.998;2022-08-19T04:12:02;26.14;70.76
72712;SHT30;60828;40.292;17.998;2022-08-19T04:14:28;26.13;70.76
72712;SHT30;60828;40.292;17.998;2022-08-19T04:17:00;26.18;70.84
72712;SHT30;60828;40.292;17.998;2022-08-19T04:19:26;26.13;71.07
72712;SHT30;60828;40.292;17.998;2022-08-19T04:21:53;26.11;71.14
72712;SHT30;60828;40.292;17.998;2022-08-19T04:24:19;26.11;71.06
72712;SHT30;60828;40.292;17.998;2022-08-19T04:26:45;26.20;70.96
72712;SHT30;60828;40.292;17.998;2022-08-19T04:29:11;26.22;70.74
72712;SHT30;60828;40.292;17.998;2022-08-19T04:31:37;26.27;70.83
72712;SHT30;60828;40.292;17.998;2022-08-19T04:34:04;26.38;70.53
72712;SHT30;60828;40.292;17.998;2022-08-19T04:36:31;26.48;70.39
72712;SHT30;60828;40.292;17.998;2022-08-19T04:38:58;26.60;70.27
72712;SHT30;60828;40.292;17.998;2022-08-19T04:41:23;26.73;70.03
72712;SHT30;60828;40.292;17.998;2022-08-19T04:44:07;26.86;69.77
72712;SHT30;60828;40.292;17.998;2022-08-19T04:46:33;26.99;69.73
72712;SHT30;60828;40.292;17.998;2022-08-19T04:48:59;27.17;69.48
72712;SHT30;60828;40.292;17.998;2022-08-19T04:51:25;27.35;69.02
72712;SHT30;60828;40.292;17.998;2022-08-19T04:53:50;27.49;68.62
72712;SHT30;60828;40.292;17.998;2022-08-19T04:56:17;27.65;68.43
72712;SHT30;60828;40.292;17.998;2022-08-19T04:58:44;27.75;68.13
72712;SHT30;60828;40.292;17.998;2022-08-19T05:01:17;27.72;67.92
72712;SHT30;60828;40.292;17.998;2022-08-19T05:03:43;27.55;68.16
72712;SHT30;60828;40.292;17.998;2022-08-19T05:06:09;27.21;68.37
72712;SHT30;60828;40.292;17.998;2022-08-19T05:08:36;27.02;68.28
72712;SHT30;60828;40.292;17.998;2022-08-19T05:11:06;27.17;68.13
72712;SHT30;60828;40.292;17.998;2022-08-19T05:13:32;27.23;68.04
72712;SHT30;60828;40.292;17.998;2022-08-19T05:15:58;27.54;67.68
72712;SHT30;60828;40.292;17.998;2022-08-19T05:18:23;27.69;67.25
72712;SHT30;60828;40.292;17.998;2022-08-19T05:21:08;28.12;66.71
72712;SHT30;60828;40.292;17.998;2022-08-19T05:23:52;28.40;66.32
72712;SHT30;60828;40.292;17.998;2022-08-19T05:26:17;28.55;65.96
72712;SHT30;60828;40.292;17.998;2022-08-19T05:28:42;28.74;65.75
72712;SHT30;60828;40.292;17.998;2022-08-19T05:31:08;29.15;65.41
72712;SHT30;60828;40.292;17.998;2022-08-19T05:33:33;29.46;65.75
72712;SHT30;60828;40.292;17.998;2022-08-19T05:35:59;29.54;65.60
72712;SHT30;60828;40.292;17.998;2022-08-19T05:38:25;29.89;65.05
72712;SHT30;60828;40.292;17.998;2022-08-19T05:40:52;30.39;64.27
72712;SHT30;60828;40.292;17.998;2022-08-19T05:43:17;31.10;63.47
72712;SHT30;60828;40.292;17.998;2022-08-19T05:45:43;31.36;62.82
72712;SHT30;60828;40.292;17.998;2022-08-19T05:48:09;31.73;62.20
72712;SHT30;60828;40.292;17.998;2022-08-19T05:50:36;31.62;62.30
72712;SHT30;60828;40.292;17.998;2022-08-19T05:53:02;32.48;60.06
72712;SHT30;60828;40.292;17.998;2022-08-19T05:55:27;33.82;57.14
72712;SHT30;60828;40.292;17.998;2022-08-19T05:57:52;34.88;54.34
72712;SHT30;60828;40.292;17.998;2022-08-19T06:00:18;35.33;53.56
72712;SHT30;60828;40.292;17.998;2022-08-19T06:02:43;36.01;51.89
72712;SHT30;60828;40.292;17.998;2022-08-19T06:05:09;36.68;50.71
72712;SHT30;60828;40.292;17.998;2022-08-19T06:07:35;36.92;50.44
72712;SHT30;60828;40.292;17.998;2022-08-19T06:10:00;37.71;48.86
72712;SHT30;60828;40.292;17.998;2022-08-19T06:12:26;37.48;49.58
72712;SHT30;60828;40.292;17.998;2022-08-19T06:14:55;36.75;51.70
72712;SHT30;60828;40.292;17.998;2022-08-19T06:17:21;36.93;51.67
72712;SHT30;60828;40.292;17.998;2022-08-19T06:19:49;36.87;52.33
72712;SHT30;60828;40.292;17.998;2022-08-19T06:22:15;37.27;51.46
72712;SHT30;60828;40.292;17.998;2022-08-19T06:24:41;37.13;51.55
72712;SHT30;60828;40.292;17.998;2022-08-19T06:27:09;37.57;51.02
72712;SHT30;60828;40.292;17.998;2022-08-19T06:29:35;37.69;51.01
72712;SHT30;60828;40.292;17.998;2022-08-19T06:32:01;37.61;50.93
72712;SHT30;60828;40.292;17.998;2022-08-19T06:34:27;38.06;50.17
72712;SHT30;60828;40.292;17.998;2022-08-19T06:36:53;37.61;50.84
72712;SHT30;60828;40.292;17.998;2022-08-19T06:39:27;37.35;52.32
72712;SHT30;60828;40.292;17.998;2022-08-19T06:41:54;37.33;52.14
72712;SHT30;60828;40.292;17.998;2022-08-19T06:44:24;38.05;50.99
72712;SHT30;60828;40.292;17.998;2022-08-19T06:46:51;38.39;50.60
72712;SHT30;60828;40.292;17.998;2022-08-19T06:49:16;39.18;49.11
72712;SHT30;60828;40.292;17.998;2022-08-19T06:51:42;39.19;48.90
72712;SHT30;60828;40.292;17.998;2022-08-19T06:54:08;39.14;49.12
72712;SHT30;60828;40.292;17.998;2022-08-19T06:56:34;39.16;49.31
72712;SHT30;60828;40.292;17.998;2022-08-19T06:59:09;38.60;50.53
72712;SHT30;60828;40.292;17.998;2022-08-19T07:01:36;38.56;50.51
72712;SHT30;60828;40.292;17.998;2022-08-19T07:04:03;38.95;50.00
72712;SHT30;60828;40.292;17.998;2022-08-19T07:06:28;38.94;49.65
72712;SHT30;60828;40.292;17.998;2022-08-19T07:08:56;38.33;50.91
72712;SHT30;60828;40.292;17.998;2022-08-19T07:11:23;38.97;49.54
72712;SHT30;60828;40.292;17.998;2022-08-19T07:13:48;38.64;50.19
72712;SHT30;60828;40.292;17.998;2022-08-19T07:16:15;39.73;48.28
72712;SHT30;60828;40.292;17.998;2022-08-19T07:18:41;39.08;49.43
72712;SHT30;60828;40.292;17.998;2022-08-19T07:21:08;38.94;49.69
72712;SHT30;60828;40.292;17.998;2022-08-19T07:23:34;38.85;49.46
72712;SHT30;60828;40.292;17.998;2022-08-19T07:26:33;39.30;48.35
72712;SHT30;60828;40.292;17.998;2022-08-19T07:28:52;39.19;48.38
72712;SHT30;60828;40.292;17.998;2022-08-19T07:31:18;39.52;47.66
72712;SHT30;60828;40.292;17.998;2022-08-19T07:33:46;38.91;48.91
72712;SHT30;60828;40.292;17.998;2022-08-19T07:36:12;39.38;47.63
72712;SHT30;60828;40.292;17.998;2022-08-19T07:38:40;39.41;48.08
72712;SHT30;60828;40.292;17.998;2022-08-19T07:41:05;38.97;48.46
72712;SHT30;60828;40.292;17.998;2022-08-19T07:43:31;38.49;50.34
72712;SHT30;60828;40.292;17.998;2022-08-19T07:45:57;38.68;49.59
72712;SHT30;60828;40.292;17.998;2022-08-19T07:48:23;38.16;50.47
72712;SHT30;60828;40.292;17.998;2022-08-19T07:50:51;38.40;49.54
72712;SHT30;60828;40.292;17.998;2022-08-19T07:53:16;39.45;47.02
72712;SHT30;60828;40.292;17.998;2022-08-19T07:55:42;39.36;46.73
72712;SHT30;60828;40.292;17.998;2022-08-19T07:58:07;39.38;47.06
72712;SHT30;60828;40.292;17.998;2022-08-19T08:00:33;39.29;47.37
72712;SHT30;60828;40.292;17.998;2022-08-19T08:02:58;38.90;48.41
72712;SHT30;60828;40.292;17.998;2022-08-19T08:05:24;38.09;50.46
72712;SHT30;60828;40.292;17.998;2022-08-19T08:08:08;37.78;51.12
72712;SHT30;60828;40.292;17.998;2022-08-19T08:10:53;37.89;51.30
72712;SHT30;60828;40.292;17.998;2022-08-19T08:13:19;37.90;51.51
72712;SHT30;60828;40.292;17.998;2022-08-19T08:15:44;38.02;51.07
72712;SHT30;60828;40.292;17.998;2022-08-19T08:18:11;38.01;51.49
72712;SHT30;60828;40.292;17.998;2022-08-19T08:20:36;37.58;53.00
72712;SHT30;60828;40.292;17.998;2022-08-19T08:23:02;36.72;54.60
72712;SHT30;60828;40.292;17.998;2022-08-19T08:25:45;37.09;53.83
72712;SHT30;60828;40.292;17.998;2022-08-19T08:28:12;37.40;52.79
72712;SHT30;60828;40.292;17.998;2022-08-19T08:30:37;37.24;53.09
72712;SHT30;60828;40.292;17.998;2022-08-19T08:33:06;37.17;53.31
72712;SHT30;60828;40.292;17.998;2022-08-19T08:35:31;36.75;54.29
72712;SHT30;60828;40.292;17.998;2022-08-19T08:37:58;35.87;56.57
72712;SHT30;60828;40.292;17.998;2022-08-19T08:40:28;36.29;55.41
72712;SHT30;60828;40.292;17.998;2022-08-19T08:42:59;35.96;55.98
72712;SHT30;60828;40.292;17.998;2022-08-19T08:45:27;35.81;56.04
72712;SHT30;60828;40.292;17.998;2022-08-19T08:47:53;35.39;57.42
72712;SHT30;60828;40.292;17.998;2022-08-19T08:50:25;35.77;56.74
72712;SHT30;60828;40.292;17.998;2022-08-19T08:52:53;36.68;54.79
72712;SHT30;60828;40.292;17.998;2022-08-19T08:55:22;36.68;54.74
72712;SHT30;60828;40.292;17.998;2022-08-19T08:57:51;37.34;52.76
72712;SHT30;60828;40.292;17.998;2022-08-19T09:00:21;37.30;52.76
72712;SHT30;60828;40.292;17.998;2022-08-19T09:02:47;37.35;52.40
72712;SHT30;60828;40.292;17.998;2022-08-19T09:05:12;37.10;52.60
72712;SHT30;60828;40.292;17.998;2022-08-19T09:18:05;38.15;48.28
72712;SHT30;60828;40.292;17.998;2022-08-19T09:20:33;38.17;48.32
72712;SHT30;60828;40.292;17.998;2022-08-19T09:22:58;38.15;48.63
72712;SHT30;60828;40.292;17.998;2022-08-19T09:25:24;37.92;48.17
72712;SHT30;60828;40.292;17.998;2022-08-19T09:27:50;37.68;48.56
72712;SHT30;60828;40.292;17.998;2022-08-19T09:30:23;37.86;48.52
72712;SHT30;60828;40.292;17.998;2022-08-19T09:32:49;36.99;49.85
72712;SHT30;60828;40.292;17.998;2022-08-19T09:35:17;37.27;49.51
72712;SHT30;60828;40.292;17.998;2022-08-19T09:37:42;36.94;49.80
72712;SHT30;60828;40.292;17.998;2022-08-19T09:40:08;37.72;48.78
72712;SHT30;60828;40.292;17.998;2022-08-19T09:42:34;37.88;48.41
72712;SHT30;60828;40.292;17.998;2022-08-19T09:45:00;37.30;49.64
72712;SHT30;60828;40.292;17.998;2022-08-19T09:47:25;37.93;48.27
72712;SHT30;60828;40.292;17.998;2022-08-19T09:49:50;38.05;48.05
72712;SHT30;60828;40.292;17.998;2022-08-19T09:52:16;38.23;47.39
72712;SHT30;60828;40.292;17.998;2022-08-19T09:54:42;38.36;47.08
72712;SHT30;60828;40.292;17.998;2022-08-19T09:57:08;39.04;45.43
72712;SHT30;60828;40.292;17.998;2022-08-19T09:59:33;39.73;44.88
72712;SHT30;60828;40.292;17.998;2022-08-19T10:01:58;39.16;44.69
72712;SHT30;60828;40.292;17.998;2022-08-19T10:04:24;39.19;44.61
72712;SHT30;60828;40.292;17.998;2022-08-19T10:07:09;39.14;44.35
72712;SHT30;60828;40.292;17.998;2022-08-19T10:09:35;39.29;43.89
72712;SHT30;60828;40.292;17.998;2022-08-19T10:12:00;39.29;44.20
72712;SHT30;60828;40.292;17.998;2022-08-19T10:14:26;39.42;43.05
72712;SHT30;60828;40.292;17.998;2022-08-19T10:16:52;39.98;41.57
72712;SHT30;60828;40.292;17.998;2022-08-19T10:19:17;40.10;41.20
72712;SHT30;60828;40.292;17.998;2022-08-19T10:21:45;39.81;41.46
72712;SHT30;60828;40.292;17.998;2022-08-19T10:24:10;39.77;41.20
72712;SHT30;60828;40.292;17.998;2022-08-19T10:26:37;38.98;42.50
72712;SHT30;60828;40.292;17.998;2022-08-19T10:29:03;38.92;42.58
72712;SHT30;60828;40.292;17.998;2022-08-19T10:31:30;38.99;41.63
72712;SHT30;60828;40.292;17.998;2022-08-19T10:33:56;39.04;40.94
72712;SHT30;60828;40.292;17.998;2022-08-19T10:36:27;38.85;41.01
72712;SHT30;60828;40.292;17.998;2022-08-19T10:38:54;38.79;41.28
72712;SHT30;60828;40.292;17.998;2022-08-19T10:41:23;38.74;41.57
72712;SHT30;60828;40.292;17.998;2022-08-19T10:43:52;38.60;42.05
72712;SHT30;60828;40.292;17.998;2022-08-19T10:46:19;38.57;41.76
72712;SHT30;60828;40.292;17.998;2022-08-19T10:48:45;39.35;40.53
72712;SHT30;60828;40.292;17.998;2022-08-19T10:51:11;39.64;40.37
72712;SHT30;60828;40.292;17.998;2022-08-19T10:53:54;39.64;40.24
72712;SHT30;60828;40.292;17.998;2022-08-19T10:56:20;40.22;39.00
72712;SHT30;60828;40.292;17.998;2022-08-19T10:59:04;39.33;38.93
72712;SHT30;60828;40.292;17.998;2022-08-19T11:01:30;39.18;39.52
72712;SHT30;60828;40.292;17.998;2022-08-19T11:03:58;38.87;39.88
72712;SHT30;60828;40.292;17.998;2022-08-19T11:06:24;39.11;39.95
72712;SHT30;60828;40.292;17.998;2022-08-19T11:08:53;39.04;39.87
72712;SHT30;60828;40.292;17.998;2022-08-19T11:11:19;38.56;39.87
72712;SHT30;60828;40.292;17.998;2022-08-19T11:13:45;38.74;39.56
72712;SHT30;60828;40.292;17.998;2022-08-19T11:16:24;38.46;39.61
72712;SHT30;60828;40.292;17.998;2022-08-19T11:18:51;39.19;39.18
72712;SHT30;60828;40.292;17.998;2022-08-19T11:21:21;38.99;39.57
72712;SHT30;60828;40.292;17.998;2022-08-19T11:23:50;39.02;38.87
72712;SHT30;60828;40.292;17.998;2022-08-19T11:26:16;38.72;38.61
72712;SHT30;60828;40.292;17.998;2022-08-19T11:28:42;39.70;37.57
72712;SHT30;60828;40.292;17.998;2022-08-19T11:31:11;40.04;36.89
72712;SHT30;60828;40.292;17.998;2022-08-19T11:33:37;39.94;37.40
72712;SHT30;60828;40.292;17.998;2022-08-19T11:36:02;39.80;37.22
72712;SHT30;60828;40.292;17.998;2022-08-19T11:38:28;39.73;37.33
72712;SHT30;60828;40.292;17.998;2022-08-19T11:40:58;39.66;37.29
72712;SHT30;60828;40.292;17.998;2022-08-19T11:43:24;40.01;36.37
72712;SHT30;60828;40.292;17.998;2022-08-19T11:45:51;40.83;35.33
72712;SHT30;60828;40.292;17.998;2022-08-19T11:48:16;41.40;33.95
72712;SHT30;60828;40.292;17.998;2022-08-19T11:50:51;41.34;32.03
72712;SHT30;60828;40.292;17.998;2022-08-19T11:53:17;41.35;32.69
72712;SHT30;60828;40.292;17.998;2022-08-19T11:55:43;38.34;50.29
72712;SHT30;60828;40.292;17.998;2022-08-19T11:58:10;36.96;52.81
72712;SHT30;60828;40.292;17.998;2022-08-19T12:00:35;35.49;58.73
72712;SHT30;60828;40.292;17.998;2022-08-19T12:03:01;35.52;57.59
72712;SHT30;60828;40.292;17.998;2022-08-19T12:05:26;35.33;57.05
72712;SHT30;60828;40.292;17.998;2022-08-19T12:07:52;35.14;58.69
72712;SHT30;60828;40.292;17.998;2022-08-19T12:10:19;34.74;59.28
72712;SHT30;60828;40.292;17.998;2022-08-19T12:12:44;35.33;57.21
72712;SHT30;60828;40.292;17.998;2022-08-19T12:15:10;35.64;56.12
72712;SHT30;60828;40.292;17.998;2022-08-19T12:17:37;35.08;55.14
72712;SHT30;60828;40.292;17.998;2022-08-19T12:20:03;34.76;56.10
72712;SHT30;60828;40.292;17.998;2022-08-19T12:22:28;34.44;57.21
72712;SHT30;60828;40.292;17.998;2022-08-19T12:24:54;34.87;56.18
72712;SHT30;60828;40.292;17.998;2022-08-19T12:27:20;34.88;55.50
72712;SHT30;60828;40.292;17.998;2022-08-19T12:29:45;34.95;55.51
72712;SHT30;60828;40.292;17.998;2022-08-19T12:32:10;34.81;54.96
72712;SHT30;60828;40.292;17.998;2022-08-19T12:34:36;34.59;55.23
72712;SHT30;60828;40.292;17.998;2022-08-19T12:37:03;34.60;55.19
72712;SHT30;60828;40.292;17.998;2022-08-19T12:39:29;34.49;55.46
72712;SHT30;60828;40.292;17.998;2022-08-19T12:41:56;34.26;56.31
72712;SHT30;60828;40.292;17.998;2022-08-19T12:44:23;34.43;56.52
72712;SHT30;60828;40.292;17.998;2022-08-19T12:46:48;34.59;55.95
72712;SHT30;60828;40.292;17.998;2022-08-19T12:49:14;34.61;55.36
72712;SHT30;60828;40.292;17.998;2022-08-19T12:51:40;35.14;54.14
72712;SHT30;60828;40.292;17.998;2022-08-19T12:54:05;35.11;54.57
72712;SHT30;60828;40.292;17.998;2022-08-19T12:56:31;35.08;53.65
72712;SHT30;60828;40.292;17.998;2022-08-19T12:59:00;35.02;53.63
72712;SHT30;60828;40.292;17.998;2022-08-19T13:01:25;34.91;53.55
72712;SHT30;60828;40.292;17.998;2022-08-19T13:03:52;35.02;53.98
72712;SHT30;60828;40.292;17.998;2022-08-19T13:06:18;35.26;53.93
72712;SHT30;60828;40.292;17.998;2022-08-19T13:08:43;35.32;53.62
72712;SHT30;60828;40.292;17.998;2022-08-19T13:11:12;35.53;52.61
72712;SHT30;60828;40.292;17.998;2022-08-19T13:13:41;35.46;52.79
72712;SHT30;60828;40.292;17.998;2022-08-19T13:16:08;34.80;54.28
72712;SHT30;60828;40.292;17.998;2022-08-19T13:18:34;34.83;54.04
72712;SHT30;60828;40.292;17.998;2022-08-19T13:21:04;34.83;53.22
72712;SHT30;60828;40.292;17.998;2022-08-19T13:23:30;34.66;52.77
72712;SHT30;60828;40.292;17.998;2022-08-19T13:25:59;34.20;51.82
72712;SHT30;60828;40.292;17.998;2022-08-19T13:28:25;34.30;52.90
72712;SHT30;60828;40.292;17.998;2022-08-19T13:30:50;34.35;53.64
72712;SHT30;60828;40.292;17.998;2022-08-19T13:33:34;34.41;54.34
72712;SHT30;60828;40.292;17.998;2022-08-19T13:36:00;34.39;53.61
72712;SHT30;60828;40.292;17.998;2022-08-19T13:38:26;34.49;53.99
72712;SHT30;60828;40.292;17.998;2022-08-19T13:40:52;34.61;53.69
72712;SHT30;60828;40.292;17.998;2022-08-19T13:43:19;34.54;53.66
72712;SHT30;60828;40.292;17.998;2022-08-19T13:45:45;34.26;54.02
72712;SHT30;60828;40.292;17.998;2022-08-19T13:48:11;33.96;55.11
72712;SHT30;60828;40.292;17.998;2022-08-19T13:50:41;34.01;55.13
72712;SHT30;60828;40.292;17.998;2022-08-19T13:53:07;33.88;55.55
72712;SHT30;60828;40.292;17.998;2022-08-19T13:55:33;33.84;55.53
72712;SHT30;60828;40.292;17.998;2022-08-19T13:57:59;33.11;62.38
72712;SHT30;60828;40.292;17.998;2022-08-19T14:05:37;32.27;66.27
72712;SHT30;60828;40.292;17.998;2022-08-19T14:08:02;32.21;66.59
72712;SHT30;60828;40.292;17.998;2022-08-19T14:10:28;32.32;66.80
72712;SHT30;60828;40.292;17.998;2022-08-19T14:12:56;32.28;66.38
72712;SHT30;60828;40.292;17.998;2022-08-19T14:15:23;32.45;66.57
72712;SHT30;60828;40.292;17.998;2022-08-19T14:17:48;32.65;65.95
72712;SHT30;60828;40.292;17.998;2022-08-19T14:20:14;32.82;65.22
72712;SHT30;60828;40.292;17.998;2022-08-19T14:22:41;32.86;65.17
72712;SHT30;60828;40.292;17.998;2022-08-19T14:25:10;33.14;63.48
72712;SHT30;60828;40.292;17.998;2022-08-19T14:27:36;33.37;62.69
72712;SHT30;60828;40.292;17.998;2022-08-19T14:30:03;33.46;60.43
72712;SHT30;60828;40.292;17.998;2022-08-19T14:32:28;33.02;61.26
72712;SHT30;60828;40.292;17.998;2022-08-19T14:34:54;32.98;60.69
72712;SHT30;60828;40.292;17.998;2022-08-19T14:37:19;32.95;61.64
72712;SHT30;60828;40.292;17.998;2022-08-19T14:39:45;32.44;62.47
72712;SHT30;60828;40.292;17.998;2022-08-19T14:42:10;32.59;62.76
72712;SHT30;60828;40.292;17.998;2022-08-19T14:44:36;32.49;62.81
72712;SHT30;60828;40.292;17.998;2022-08-19T14:47:01;32.28;61.62
72712;SHT30;60828;40.292;17.998;2022-08-19T14:49:27;32.08;63.59
72712;SHT30;60828;40.292;17.998;2022-08-19T14:51:52;32.32;63.15
72712;SHT30;60828;40.292;17.998;2022-08-19T14:54:17;32.39;62.71
72712;SHT30;60828;40.292;17.998;2022-08-19T14:56:43;32.24;62.07
72712;SHT30;60828;40.292;17.998;2022-08-19T14:59:08;32.54;61.74
72712;SHT30;60828;40.292;17.998;2022-08-19T15:01:34;32.62;61.25
72712;SHT30;60828;40.292;17.998;2022-08-19T15:03:59;32.68;60.93
72712;SHT30;60828;40.292;17.998;2022-08-19T15:06:25;32.82;60.23
72712;SHT30;60828;40.292;17.998;2022-08-19T15:08:50;33.03;59.32
72712;SHT30;60828;40.292;17.998;2022-08-19T15:11:17;33.51;58.22
72712;SHT30;60828;40.292;17.998;2022-08-19T15:13:45;33.79;56.79
72712;SHT30;60828;40.292;17.998;2022-08-19T15:16:11;33.79;57.07
72712;SHT30;60828;40.292;17.998;2022-08-19T15:18:37;33.85;57.36
72712;SHT30;60828;40.292;17.998;2022-08-19T15:21:03;33.86;57.31
72712;SHT30;60828;40.292;17.998;2022-08-19T15:23:28;33.71;57.05
72712;SHT30;60828;40.292;17.998;2022-08-19T15:25:54;33.46;58.10
72712;SHT30;60828;40.292;17.998;2022-08-19T15:28:24;33.47;59.73
72712;SHT30;60828;40.292;17.998;2022-08-19T15:30:50;33.27;60.59
72712;SHT30;60828;40.292;17.998;2022-08-19T15:33:15;33.17;61.47